秋田空港の過去48時間の天気

秋田空港 (Akita)

現在時刻: 1/23 15:00 JST (1/23 06:00 UTC) 以下の時間は現地時間です。

過去48時間のMETAR気象情報
時間 風向 風速(m/s) 視程 気温(℃) 湿度(%) 気圧(hPa) 天気現象
23 14:00 西 7 10km以上 3 75 996 弱いしゅう雪 弱いしゅう雨
23 13:43 西 6 10km以上 3 81 995 弱いしゅう雪 弱いしゅう雨
23 13:29 西 11 8,000m 2 87 995 弱い雷雪 弱い雷雨
23 13:00 南南西 3 6,000m 2 87 995 弱いしゅう雪
23 12:47 3 2,000m 1 93 996 弱いしゅう雪
23 12:33 3 700m 0 100 996 しゅう雪
23 12:22 3 200m 0 100 995 雷雪
23 12:00 南南東 4 300m 1 93 996 雷雪
23 11:47 南東 4 400m 0 93 996 雷雪
23 11:24 南東 5 500m 1 86 996 しゅう雪
23 11:00 南東 5 3,000m 0 93 997 弱いしゅう雪
23 10:45 南東 5 400m 1 80 997 しゅう雪
23 10:38 南東 5 1,600m 1 80 997 弱いしゅう雪
23 10:31 南東 5 2,500m 1 80 997 弱いしゅう雪
23 10:00 南東 5 10km以上 0 86 998
23 09:45 南東 5 10km以上 0 86 998 弱いしゅう雪
23 09:29 南東 5 4,000m 0 86 999 弱いしゅう雪
23 09:00 南東 5 10km以上 0 86 999 周辺でしゅう雨
23 08:00 南東 5 10km以上 -1 86 1001 弱いしゅう雪
23 07:00 東南東 3 10km以上 -2 93 1002
23 06:40 東南東 4 10km以上 -1 86 1002
22 21:00 東南東 5 6,000m -2 86 1012 弱い雪
22 20:23 東南東 6 4,500m -3 93 1013 弱い雪
22 20:00 東南東 5 3,000m -3 93 1013 弱い雪
22 19:36 東南東 5 2,000m -3 93 1014 弱い雪
22 19:00 東南東 5 2,500m -3 86 1015 弱い雪
22 18:44 南東 5 3,000m -3 80 1015 弱い雪
22 18:36 南東 5 4,000m -3 80 1015 弱い雪
22 18:00 南東 5 10km以上 -3 74 1015 弱い雪
22 17:00 南東 3 10km以上 -3 74 1015
22 16:00 南東 2 10km以上 -3 68 1015
22 15:00 不定 1 10km以上 -2 59 1016
22 14:00 3 10km以上 -2 54 1016
22 13:00 南東 3 10km以上 -3 54 1018
22 12:00 東南東 3 10km以上 -3 63 1020
22 11:00 東南東 5 10km以上 -4 68 1021
22 10:00 3 10km以上 -6 79 1023
22 09:00 南東 3 10km以上 -7 79 1023
22 08:00 南東 3 10km以上 -8 79 1023
22 07:00 東南東 2 10km以上 -10 92 1022
22 06:40 南東 2 10km以上 -9 85 1022
RJSK 230500Z 26013G23KT 9999 -SHSNRA FEW007 SCT025 BKN040 03/M01 Q0996
RJSK 230443Z 27012KT 9999 -SHSNRA FEW005 SCT025 BKN050 03/M00 Q0995 RMK 1ST005 3CU025 5CU050 A2941
RJSK 230429Z 27021G35KT 8000 -TSSNRA FEW005 SCT015 FEW015CB BKN025 02/M00 Q0995 RMK 1ST005 3CU015 1CB015 5CU025 A2940 FBL TS 15KM NE MOV NE
RJSK 230400Z 21006KT 150V290 6000 -SHSN FEW002 SCT008 BKN015 02/00 Q0995
RJSK 230347Z VRB06KT 2000 R28/0700VP1800U -SHSN FEW001 SCT003 BKN008 FEW015CB 01/M00 Q0996 RMK 2ST001 4ST003 6ST008 1CB015 A2941 CB 5KM NE MOV NE
RJSK 230333Z VRB06KT 0700 R28/1000VP1800U SHSN SCT001 SCT002 BKN003 FEW015CB 00/M00 Q0996 RMK 3ST001 4ST002 6ST003 1CB015 A2941 CB 20KM NE MOV NE
RJSK 230322Z VRB05KT 0200 R28/0750VP1800D TSSN VV002 00/M00 Q0995 RMK A2941 FBL TS OHD MOV NE
RJSK 230300Z 15007KT 120V200 0300 R28/0900V1500D TSSN SCT001 BKN002 BKN005 FEW015CB 01/M00 Q0996
RJSK 230247Z 14007KT 110V170 0400 R28/0600V1200D TSSN FEW002 BKN003 BKN005 FEW015CB 00/M01 Q0996 RMK 2ST002 5ST003 6ST005 1CB015 A2943 FBL TS OHD MOV NE
RJSK 230224Z 14009KT 110V170 0500 R28/1300VP1800D SHSN FEW002 BKN003 BKN005 01/M01 Q0996 RMK 2ST002 5ST003 6ST005 A2943 CB 20KM N MOV NE
RJSK 230200Z 14010KT 3000 R28/1000VP1800U -SHSN FEW003 SCT005 BKN009 00/M01 Q0997
RJSK 230145Z 14010KT 0400 R28/1200VP1800D SHSN FEW003 BKN005 BKN012 01/M02 Q0997 RMK 2ST003 5ST005 6ST012 A2945
RJSK 230138Z 14009KT 1600 -SHSN FEW005 BKN010 BKN020 01/M02 Q0997 RMK 1ST005 5ST010 6CU020 A2946
RJSK 230131Z 14010KT 2500 -SHSN FEW005 SCT010 BKN020 01/M02 Q0997 RMK 1ST005 3ST010 5CU020 A2947
RJSK 230100Z 13010KT 9999 FEW015 SCT025 BKN040 00/M02 Q0998
RJSK 230045Z 13009KT 9999 -SHSN FEW010 SCT020 BKN035 00/M02 Q0998 RMK 1ST010 3CU020 6CU035 A2950
RJSK 230029Z 13010KT 4000 -SHSN FEW007 SCT015 BKN025 00/M02 Q0999 RMK 1ST007 4CU015 6CU025 A2951 9999E
RJSK 230000Z 13010KT 9999 VCSH FEW010 SCT025 BKN035 M00/M02 Q0999
RJSK 222300Z 14009KT 9999 -SHSN FEW015 SCT020 BKN030 M01/M03 Q1001
RJSK 222200Z 12005KT 9999 FEW005 SCT040 BKN070 M02/M03 Q1002
RJSK 222140Z 12008KT 9999 FEW004 SCT040 BKN070 M01/M03 Q1002 RMK 1ST004 3SC040 5AC070 A2961
RJSK 221200Z 11010KT 6000 -SN FEW010 SCT040 BKN060 M02/M04 Q1012
RJSK 221123Z 11012KT 4500 -SN FEW003 SCT010 BKN020 M03/M04 Q1013 RMK 1ST003 3ST010 5CU020 A2992
RJSK 221100Z 12009KT 3000 -SN FEW001 SCT003 BKN009 M03/M04 Q1013
RJSK 221036Z 12009KT 2000 -SN FEW001 SCT003 BKN009 M03/M04 Q1014 RMK 1ST001 3ST003 5ST009 A2995
RJSK 221000Z 12009KT 2500 -SN FEW005 SCT010 BKN020 M03/M05 Q1015
RJSK 220944Z 13009KT 3000 -SN FEW005 SCT010 BKN020 M03/M06 Q1015 RMK 1ST005 3ST010 6SC020 A2999
RJSK 220936Z 13009KT 4000 -SN FEW005 SCT012 BKN020 M03/M06 Q1015 RMK 1ST005 3ST012 5SC020 A2999
RJSK 220900Z 13009KT 9999 -SN FEW015 SCT020 BKN030 M03/M07 Q1015
RJSK 220800Z 14006KT 9999 FEW015 SCT025 BKN035 M03/M07 Q1015
RJSK 220700Z 13004KT 9999 FEW020 SCT035 BKN060 M03/M08 Q1015
RJSK 220600Z VRB02KT 9999 FEW020 SCT060 BKN090 M02/M09 Q1016
RJSK 220500Z 10006KT 9999 FEW020 SCT070 BKN100 M02/M10 Q1016
RJSK 220400Z 13006KT 100V170 9999 FEW020 SCT100 BKN130 M03/M11 Q1018
RJSK 220300Z 11006KT 090V150 9999 FEW020 SCT120 BKN150 M03/M09 Q1020
RJSK 220200Z 11009KT 9999 FEW020 SCT100 BKN130 M04/M09 Q1021
RJSK 220100Z 10005KT 9999 FEW020 BKN140 BKN160 M06/M09 Q1023
RJSK 220000Z 13005KT 9999 FEW020 BKN140 M07/M10 Q1023
RJSK 212300Z 13005KT 9999 FEW020 BKN/// M08/M11 Q1023
RJSK 212200Z 12003KT 9999 FEW020 BKN/// M10/M11 Q1022
RJSK 212140Z 14003KT 9999 FEW020 BKN/// M09/M11 Q1022 RMK 1CU020 A3020